sensor_id;sensor_type;location;lat;lon;timestamp;P1;durP1;ratioP1;P2;durP2;ratioP2
13847;SDS011;6994;49.752;6.094;2023-04-19T00:01:20;7.30;;;6.45;;
13847;SDS011;6994;49.752;6.094;2023-04-19T00:03:47;7.82;;;6.75;;
13847;SDS011;6994;49.752;6.094;2023-04-19T00:06:15;10.48;;;8.98;;
13847;SDS011;6994;49.752;6.094;2023-04-19T00:08:42;8.55;;;7.70;;
13847;SDS011;6994;49.752;6.094;2023-04-19T00:11:09;10.95;;;7.43;;
13847;SDS011;6994;49.752;6.094;2023-04-19T00:13:36;7.75;;;6.80;;
13847;SDS011;6994;49.752;6.094;2023-04-19T00:16:04;8.18;;;7.07;;
13847;SDS011;6994;49.752;6.094;2023-04-19T00:18:31;8.00;;;7.03;;
13847;SDS011;6994;49.752;6.094;2023-04-19T00:20:58;9.93;;;7.47;;
13847;SDS011;6994;49.752;6.094;2023-04-19T00:23:25;10.32;;;9.30;;
13847;SDS011;6994;49.752;6.094;2023-04-19T00:25:52;9.68;;;8.10;;
13847;SDS011;6994;49.752;6.094;2023-04-19T00:28:20;9.70;;;7.45;;
13847;SDS011;6994;49.752;6.094;2023-04-19T00:30:47;9.93;;;7.03;;
13847;SDS011;6994;49.752;6.094;2023-04-19T00:33:14;10.75;;;9.65;;
13847;SDS011;6994;49.752;6.094;2023-04-19T00:35:41;8.52;;;7.35;;
13847;SDS011;6994;49.752;6.094;2023-04-19T00:38:08;9.27;;;7.12;;
13847;SDS011;6994;49.752;6.094;2023-04-19T00:40:36;8.48;;;7.40;;
13847;SDS011;6994;49.752;6.094;2023-04-19T00:43:03;8.02;;;6.75;;
13847;SDS011;6994;49.752;6.094;2023-04-19T00:45:31;8.80;;;6.47;;
13847;SDS011;6994;49.752;6.094;2023-04-19T00:47:57;8.55;;;7.55;;
13847;SDS011;6994;49.752;6.094;2023-04-19T00:50:24;12.55;;;8.10;;
13847;SDS011;6994;49.752;6.094;2023-04-19T00:52:52;8.38;;;7.35;;
13847;SDS011;6994;49.752;6.094;2023-04-19T00:55:20;8.02;;;7.18;;
13847;SDS011;6994;49.752;6.094;2023-04-19T00:57:47;9.25;;;7.03;;
13847;SDS011;6994;49.752;6.094;2023-04-19T01:00:14;8.00;;;7.20;;
13847;SDS011;6994;49.752;6.094;2023-04-19T01:02:41;10.55;;;7.37;;
13847;SDS011;6994;49.752;6.094;2023-04-19T01:05:09;8.05;;;7.25;;
13847;SDS011;6994;49.752;6.094;2023-04-19T01:07:37;9.70;;;7.87;;
13847;SDS011;6994;49.752;6.094;2023-04-19T01:10:05;8.95;;;6.90;;
13847;SDS011;6994;49.752;6.094;2023-04-19T01:12:32;10.88;;;8.38;;
13847;SDS011;6994;49.752;6.094;2023-04-19T01:15:00;9.63;;;8.45;;
13847;SDS011;6994;49.752;6.094;2023-04-19T01:17:27;12.13;;;7.87;;
13847;SDS011;6994;49.752;6.094;2023-04-19T01:20:01;10.25;;;8.18;;
13847;SDS011;6994;49.752;6.094;2023-04-19T01:22:28;10.38;;;8.45;;
13847;SDS011;6994;49.752;6.094;2023-04-19T01:24:55;9.73;;;8.10;;
13847;SDS011;6994;49.752;6.094;2023-04-19T01:27:23;10.27;;;7.93;;
13847;SDS011;6994;49.752;6.094;2023-04-19T01:29:50;10.00;;;8.20;;
13847;SDS011;6994;49.752;6.094;2023-04-19T01:32:17;13.43;;;8.30;;
13847;SDS011;6994;49.752;6.094;2023-04-19T01:34:44;8.77;;;7.45;;
13847;SDS011;6994;49.752;6.094;2023-04-19T01:37:11;9.95;;;8.07;;
13847;SDS011;6994;49.752;6.094;2023-04-19T01:39:39;11.25;;;8.75;;
13847;SDS011;6994;49.752;6.094;2023-04-19T01:42:06;9.45;;;7.28;;
13847;SDS011;6994;49.752;6.094;2023-04-19T01:44:33;11.48;;;8.88;;
13847;SDS011;6994;49.752;6.094;2023-04-19T01:47:00;9.27;;;8.23;;
13847;SDS011;6994;49.752;6.094;2023-04-19T01:49:27;14.75;;;12.35;;
13847;SDS011;6994;49.752;6.094;2023-04-19T01:51:55;10.48;;;9.38;;
13847;SDS011;6994;49.752;6.094;2023-04-19T01:54:22;12.23;;;9.55;;
13847;SDS011;6994;49.752;6.094;2023-04-19T01:56:49;12.73;;;9.02;;
13847;SDS011;6994;49.752;6.094;2023-04-19T01:59:16;10.60;;;8.80;;
13847;SDS011;6994;49.752;6.094;2023-04-19T02:01:43;9.27;;;8.27;;
13847;SDS011;6994;49.752;6.094;2023-04-19T02:04:11;17.17;;;8.43;;
13847;SDS011;6994;49.752;6.094;2023-04-19T02:06:38;13.48;;;9.75;;
13847;SDS011;6994;49.752;6.094;2023-04-19T02:09:05;11.38;;;9.43;;
13847;SDS011;6994;49.752;6.094;2023-04-19T02:11:33;13.93;;;10.13;;
13847;SDS011;6994;49.752;6.094;2023-04-19T02:14:01;12.98;;;9.20;;
13847;SDS011;6994;49.752;6.094;2023-04-19T02:16:28;12.73;;;10.35;;
13847;SDS011;6994;49.752;6.094;2023-04-19T02:18:55;12.48;;;10.02;;
13847;SDS011;6994;49.752;6.094;2023-04-19T02:21:23;12.98;;;9.55;;
13847;SDS011;6994;49.752;6.094;2023-04-19T02:23:50;15.32;;;10.63;;
13847;SDS011;6994;49.752;6.094;2023-04-19T02:26:17;12.05;;;8.98;;
13847;SDS011;6994;49.752;6.094;2023-04-19T02:28:44;14.98;;;10.38;;
13847;SDS011;6994;49.752;6.094;2023-04-19T02:31:11;12.07;;;8.27;;
13847;SDS011;6994;49.752;6.094;2023-04-19T02:33:39;10.80;;;9.23;;
13847;SDS011;6994;49.752;6.094;2023-04-19T02:36:06;14.43;;;9.25;;
13847;SDS011;6994;49.752;6.094;2023-04-19T02:38:33;11.75;;;9.90;;
13847;SDS011;6994;49.752;6.094;2023-04-19T02:41:00;13.93;;;12.50;;
13847;SDS011;6994;49.752;6.094;2023-04-19T02:43:28;12.80;;;10.13;;
13847;SDS011;6994;49.752;6.094;2023-04-19T02:45:55;14.45;;;12.93;;
13847;SDS011;6994;49.752;6.094;2023-04-19T02:48:22;13.43;;;10.55;;
13847;SDS011;6994;49.752;6.094;2023-04-19T02:50:49;13.50;;;11.88;;
13847;SDS011;6994;49.752;6.094;2023-04-19T02:53:17;12.32;;;9.50;;
13847;SDS011;6994;49.752;6.094;2023-04-19T02:55:44;10.55;;;9.43;;
13847;SDS011;6994;49.752;6.094;2023-04-19T02:58:12;10.38;;;8.90;;
13847;SDS011;6994;49.752;6.094;2023-04-19T03:00:40;12.80;;;8.93;;
13847;SDS011;6994;49.752;6.094;2023-04-19T03:03:08;12.20;;;8.93;;
13847;SDS011;6994;49.752;6.094;2023-04-19T03:05:35;12.23;;;9.73;;
13847;SDS011;6994;49.752;6.094;2023-04-19T03:08:03;11.85;;;8.55;;
13847;SDS011;6994;49.752;6.094;2023-04-19T03:10:30;11.70;;;8.80;;
13847;SDS011;6994;49.752;6.094;2023-04-19T03:12:57;11.98;;;9.55;;
13847;SDS011;6994;49.752;6.094;2023-04-19T03:15:24;13.25;;;9.88;;
13847;SDS011;6994;49.752;6.094;2023-04-19T03:17:52;12.93;;;9.80;;
13847;SDS011;6994;49.752;6.094;2023-04-19T03:20:19;11.68;;;9.90;;
13847;SDS011;6994;49.752;6.094;2023-04-19T03:22:46;16.80;;;14.80;;
13847;SDS011;6994;49.752;6.094;2023-04-19T03:25:13;14.43;;;10.45;;
13847;SDS011;6994;49.752;6.094;2023-04-19T03:27:40;14.20;;;10.32;;
13847;SDS011;6994;49.752;6.094;2023-04-19T03:30:08;13.25;;;9.90;;
13847;SDS011;6994;49.752;6.094;2023-04-19T03:32:35;15.50;;;10.98;;
13847;SDS011;6994;49.752;6.094;2023-04-19T03:35:02;13.18;;;10.68;;
13847;SDS011;6994;49.752;6.094;2023-04-19T03:37:29;12.85;;;10.20;;
13847;SDS011;6994;49.752;6.094;2023-04-19T03:39:57;12.37;;;9.55;;
13847;SDS011;6994;49.752;6.094;2023-04-19T03:42:25;14.75;;;10.18;;
13847;SDS011;6994;49.752;6.094;2023-04-19T03:44:52;10.85;;;9.32;;
13847;SDS011;6994;49.752;6.094;2023-04-19T03:47:19;10.38;;;9.32;;
13847;SDS011;6994;49.752;6.094;2023-04-19T03:49:46;11.88;;;10.20;;
13847;SDS011;6994;49.752;6.094;2023-04-19T03:52:13;14.27;;;12.75;;
13847;SDS011;6994;49.752;6.094;2023-04-19T03:54:41;12.27;;;10.00;;
13847;SDS011;6994;49.752;6.094;2023-04-19T03:57:08;11.80;;;10.10;;
13847;SDS011;6994;49.752;6.094;2023-04-19T03:59:35;11.77;;;10.00;;
13847;SDS011;6994;49.752;6.094;2023-04-19T04:02:02;11.40;;;9.43;;
13847;SDS011;6994;49.752;6.094;2023-04-19T04:04:30;10.13;;;9.07;;
13847;SDS011;6994;49.752;6.094;2023-04-19T04:06:58;11.32;;;8.63;;
13847;SDS011;6994;49.752;6.094;2023-04-19T04:09:26;10.63;;;8.15;;
13847;SDS011;6994;49.752;6.094;2023-04-19T04:11:54;10.68;;;8.38;;
13847;SDS011;6994;49.752;6.094;2023-04-19T04:14:22;9.25;;;8.13;;
13847;SDS011;6994;49.752;6.094;2023-04-19T04:16:50;11.02;;;8.52;;
13847;SDS011;6994;49.752;6.094;2023-04-19T04:19:18;10.43;;;8.50;;
13847;SDS011;6994;49.752;6.094;2023-04-19T04:21:46;9.95;;;7.80;;
13847;SDS011;6994;49.752;6.094;2023-04-19T04:24:14;8.35;;;7.45;;
13847;SDS011;6994;49.752;6.094;2023-04-19T04:26:41;9.85;;;8.85;;
13847;SDS011;6994;49.752;6.094;2023-04-19T04:29:08;13.52;;;8.65;;
13847;SDS011;6994;49.752;6.094;2023-04-19T04:31:35;12.60;;;8.93;;
13847;SDS011;6994;49.752;6.094;2023-04-19T04:34:03;9.00;;;8.07;;
13847;SDS011;6994;49.752;6.094;2023-04-19T04:36:30;9.88;;;8.88;;
13847;SDS011;6994;49.752;6.094;2023-04-19T04:38:57;11.23;;;8.40;;
13847;SDS011;6994;49.752;6.094;2023-04-19T04:41:24;10.98;;;8.98;;
13847;SDS011;6994;49.752;6.094;2023-04-19T04:43:52;8.98;;;7.82;;
13847;SDS011;6994;49.752;6.094;2023-04-19T04:46:20;10.15;;;7.70;;
13847;SDS011;6994;49.752;6.094;2023-04-19T04:48:47;10.43;;;8.45;;
13847;SDS011;6994;49.752;6.094;2023-04-19T04:51:15;9.38;;;8.15;;
13847;SDS011;6994;49.752;6.094;2023-04-19T04:53:43;11.38;;;7.40;;
13847;SDS011;6994;49.752;6.094;2023-04-19T04:56:11;11.02;;;8.20;;
13847;SDS011;6994;49.752;6.094;2023-04-19T04:58:38;10.63;;;8.07;;
13847;SDS011;6994;49.752;6.094;2023-04-19T05:01:05;10.77;;;7.75;;
13847;SDS011;6994;49.752;6.094;2023-04-19T05:03:33;16.10;;;8.82;;
13847;SDS011;6994;49.752;6.094;2023-04-19T05:06:01;12.02;;;8.27;;
13847;SDS011;6994;49.752;6.094;2023-04-19T05:08:28;11.70;;;7.40;;
13847;SDS011;6994;49.752;6.094;2023-04-19T05:10:56;10.27;;;8.48;;
13847;SDS011;6994;49.752;6.094;2023-04-19T05:13:23;11.75;;;8.25;;
13847;SDS011;6994;49.752;6.094;2023-04-19T05:15:50;13.93;;;8.32;;
13847;SDS011;6994;49.752;6.094;2023-04-19T05:18:18;12.93;;;7.80;;
13847;SDS011;6994;49.752;6.094;2023-04-19T05:20:46;14.82;;;8.18;;
13847;SDS011;6994;49.752;6.094;2023-04-19T05:23:13;11.43;;;7.90;;
13847;SDS011;6994;49.752;6.094;2023-04-19T05:25:40;8.10;;;7.12;;
13847;SDS011;6994;49.752;6.094;2023-04-19T05:28:07;8.48;;;7.57;;
13847;SDS011;6994;49.752;6.094;2023-04-19T05:30:35;10.18;;;7.70;;
13847;SDS011;6994;49.752;6.094;2023-04-19T05:33:03;9.75;;;7.00;;
13847;SDS011;6994;49.752;6.094;2023-04-19T05:35:29;9.35;;;6.97;;
13847;SDS011;6994;49.752;6.094;2023-04-19T05:37:56;9.10;;;8.20;;
13847;SDS011;6994;49.752;6.094;2023-04-19T05:40:23;7.65;;;6.82;;
13847;SDS011;6994;49.752;6.094;2023-04-19T05:42:51;9.07;;;7.87;;
13847;SDS011;6994;49.752;6.094;2023-04-19T05:45:18;10.98;;;6.80;;
13847;SDS011;6994;49.752;6.094;2023-04-19T05:47:45;7.57;;;5.62;;
13847;SDS011;6994;49.752;6.094;2023-04-19T05:50:12;6.45;;;5.80;;
13847;SDS011;6994;49.752;6.094;2023-04-19T05:52:39;6.12;;;5.53;;
13847;SDS011;6994;49.752;6.094;2023-04-19T05:55:07;8.52;;;5.87;;
13847;SDS011;6994;49.752;6.094;2023-04-19T05:57:34;7.28;;;5.80;;
13847;SDS011;6994;49.752;6.094;2023-04-19T06:00:02;6.43;;;5.68;;
13847;SDS011;6994;49.752;6.094;2023-04-19T06:02:30;6.50;;;5.90;;
13847;SDS011;6994;49.752;6.094;2023-04-19T06:04:58;6.90;;;5.85;;
13847;SDS011;6994;49.752;6.094;2023-04-19T06:07:25;8.02;;;5.97;;
13847;SDS011;6994;49.752;6.094;2023-04-19T06:09:52;6.80;;;6.05;;
13847;SDS011;6994;49.752;6.094;2023-04-19T06:12:19;7.22;;;6.53;;
13847;SDS011;6994;49.752;6.094;2023-04-19T06:14:47;6.10;;;5.35;;
13847;SDS011;6994;49.752;6.094;2023-04-19T06:17:14;6.00;;;5.30;;
13847;SDS011;6994;49.752;6.094;2023-04-19T06:19:44;7.20;;;5.50;;
13847;SDS011;6994;49.752;6.094;2023-04-19T06:22:11;6.30;;;5.70;;
13847;SDS011;6994;49.752;6.094;2023-04-19T06:24:38;5.55;;;4.72;;
13847;SDS011;6994;49.752;6.094;2023-04-19T06:27:06;6.35;;;5.12;;
13847;SDS011;6994;49.752;6.094;2023-04-19T06:29:33;6.10;;;4.97;;
13847;SDS011;6994;49.752;6.094;2023-04-19T06:32:00;6.37;;;5.55;;
13847;SDS011;6994;49.752;6.094;2023-04-19T06:34:27;6.07;;;5.55;;
13847;SDS011;6994;49.752;6.094;2023-04-19T06:36:54;6.57;;;5.65;;
13847;SDS011;6994;49.752;6.094;2023-04-19T06:39:22;8.23;;;7.43;;
13847;SDS011;6994;49.752;6.094;2023-04-19T06:41:50;8.20;;;7.12;;
13847;SDS011;6994;49.752;6.094;2023-04-19T06:44:17;7.25;;;6.55;;
13847;SDS011;6994;49.752;6.094;2023-04-19T06:46:44;9.57;;;6.28;;
13847;SDS011;6994;49.752;6.094;2023-04-19T06:49:12;8.18;;;7.00;;
13847;SDS011;6994;49.752;6.094;2023-04-19T06:51:39;7.78;;;6.20;;
13847;SDS011;6994;49.752;6.094;2023-04-19T06:54:06;9.35;;;5.72;;
13847;SDS011;6994;49.752;6.094;2023-04-19T06:56:44;8.25;;;5.55;;
13847;SDS011;6994;49.752;6.094;2023-04-19T06:59:17;7.85;;;7.03;;
13847;SDS011;6994;49.752;6.094;2023-04-19T07:01:40;8.73;;;7.87;;
13847;SDS011;6994;49.752;6.094;2023-04-19T07:04:07;7.43;;;6.12;;
13847;SDS011;6994;49.752;6.094;2023-04-19T07:06:34;6.80;;;6.15;;
13847;SDS011;6994;49.752;6.094;2023-04-19T07:09:02;8.07;;;7.28;;
13847;SDS011;6994;49.752;6.094;2023-04-19T07:11:29;9.18;;;6.75;;
13847;SDS011;6994;49.752;6.094;2023-04-19T07:13:57;8.20;;;6.15;;
13847;SDS011;6994;49.752;6.094;2023-04-19T07:16:25;7.40;;;6.30;;
13847;SDS011;6994;49.752;6.094;2023-04-19T07:18:53;7.75;;;5.72;;
13847;SDS011;6994;49.752;6.094;2023-04-19T07:21:21;8.70;;;6.87;;
13847;SDS011;6994;49.752;6.094;2023-04-19T07:23:49;8.15;;;6.53;;
13847;SDS011;6994;49.752;6.094;2023-04-19T07:26:17;7.18;;;6.47;;
13847;SDS011;6994;49.752;6.094;2023-04-19T07:28:45;6.80;;;6.10;;
13847;SDS011;6994;49.752;6.094;2023-04-19T07:31:16;8.32;;;6.90;;
13847;SDS011;6994;49.752;6.094;2023-04-19T07:33:43;8.35;;;7.45;;
13847;SDS011;6994;49.752;6.094;2023-04-19T07:36:10;6.82;;;6.05;;
13847;SDS011;6994;49.752;6.094;2023-04-19T07:38:37;7.03;;;6.32;;
13847;SDS011;6994;49.752;6.094;2023-04-19T07:41:05;9.73;;;8.73;;
13847;SDS011;6994;49.752;6.094;2023-04-19T07:43:32;7.78;;;6.97;;
13847;SDS011;6994;49.752;6.094;2023-04-19T07:46:00;8.95;;;7.12;;
13847;SDS011;6994;49.752;6.094;2023-04-19T07:48:27;9.35;;;7.45;;
13847;SDS011;6994;49.752;6.094;2023-04-19T07:50:54;7.85;;;7.05;;
13847;SDS011;6994;49.752;6.094;2023-04-19T07:53:21;9.82;;;8.82;;
13847;SDS011;6994;49.752;6.094;2023-04-19T07:55:48;9.77;;;7.87;;
13847;SDS011;6994;49.752;6.094;2023-04-19T07:58:16;8.05;;;7.25;;
13847;SDS011;6994;49.752;6.094;2023-04-19T08:00:43;11.18;;;7.30;;
13847;SDS011;6994;49.752;6.094;2023-04-19T08:03:11;7.20;;;6.37;;
13847;SDS011;6994;49.752;6.094;2023-04-19T08:05:39;9.57;;;7.47;;
13847;SDS011;6994;49.752;6.094;2023-04-19T08:08:07;8.65;;;7.00;;
13847;SDS011;6994;49.752;6.094;2023-04-19T08:10:35;9.65;;;7.40;;
13847;SDS011;6994;49.752;6.094;2023-04-19T08:13:03;7.37;;;6.45;;
13847;SDS011;6994;49.752;6.094;2023-04-19T08:15:31;8.10;;;6.22;;
13847;SDS011;6994;49.752;6.094;2023-04-19T08:17:58;7.60;;;6.72;;
13847;SDS011;6994;49.752;6.094;2023-04-19T08:20:25;7.53;;;6.82;;
13847;SDS011;6994;49.752;6.094;2023-04-19T08:22:52;8.23;;;7.05;;
13847;SDS011;6994;49.752;6.094;2023-04-19T08:25:19;9.90;;;8.15;;
13847;SDS011;6994;49.752;6.094;2023-04-19T08:27:47;8.00;;;7.18;;
13847;SDS011;6994;49.752;6.094;2023-04-19T08:30:14;7.43;;;6.70;;
13847;SDS011;6994;49.752;6.094;2023-04-19T08:32:41;9.50;;;6.65;;
13847;SDS011;6994;49.752;6.094;2023-04-19T08:35:08;8.68;;;7.70;;
13847;SDS011;6994;49.752;6.094;2023-04-19T08:37:35;6.95;;;5.93;;
13847;SDS011;6994;49.752;6.094;2023-04-19T08:40:03;7.37;;;6.68;;
13847;SDS011;6994;49.752;6.094;2023-04-19T08:42:31;7.15;;;6.40;;
13847;SDS011;6994;49.752;6.094;2023-04-19T08:45:02;7.32;;;6.62;;
13847;SDS011;6994;49.752;6.094;2023-04-19T08:47:29;7.12;;;6.45;;
13847;SDS011;6994;49.752;6.094;2023-04-19T08:49:56;7.60;;;6.75;;
13847;SDS011;6994;49.752;6.094;2023-04-19T08:52:24;9.40;;;6.18;;
13847;SDS011;6994;49.752;6.094;2023-04-19T08:54:53;7.25;;;6.55;;
13847;SDS011;6994;49.752;6.094;2023-04-19T08:57:20;8.45;;;6.90;;
13847;SDS011;6994;49.752;6.094;2023-04-19T08:59:48;7.32;;;6.35;;
13847;SDS011;6994;49.752;6.094;2023-04-19T09:02:16;7.43;;;6.72;;
13847;SDS011;6994;49.752;6.094;2023-04-19T09:04:44;8.48;;;7.45;;
13847;SDS011;6994;49.752;6.094;2023-04-19T09:07:24;6.50;;;5.90;;
13847;SDS011;6994;49.752;6.094;2023-04-19T09:12:37;6.32;;;5.72;;
13847;SDS011;6994;49.752;6.094;2023-04-19T09:15:05;6.85;;;6.15;;
13847;SDS011;6994;49.752;6.094;2023-04-19T09:17:32;7.87;;;6.43;;
13847;SDS011;6994;49.752;6.094;2023-04-19T09:19:58;8.40;;;5.90;;
13847;SDS011;6994;49.752;6.094;2023-04-19T09:22:26;7.53;;;5.82;;
13847;SDS011;6994;49.752;6.094;2023-04-19T09:24:53;6.55;;;5.95;;
13847;SDS011;6994;49.752;6.094;2023-04-19T09:27:24;6.25;;;5.57;;
13847;SDS011;6994;49.752;6.094;2023-04-19T09:29:54;6.80;;;6.15;;
13847;SDS011;6994;49.752;6.094;2023-04-19T09:32:21;6.75;;;5.90;;
13847;SDS011;6994;49.752;6.094;2023-04-19T09:34:52;6.22;;;5.60;;
13847;SDS011;6994;49.752;6.094;2023-04-19T09:37:21;7.03;;;6.32;;
13847;SDS011;6994;49.752;6.094;2023-04-19T09:39:48;6.73;;;6.03;;
13847;SDS011;6994;49.752;6.094;2023-04-19T09:42:16;7.85;;;5.50;;
13847;SDS011;6994;49.752;6.094;2023-04-19T09:44:55;6.28;;;5.68;;
13847;SDS011;6994;49.752;6.094;2023-04-19T09:47:25;5.65;;;5.05;;
13847;SDS011;6994;49.752;6.094;2023-04-19T09:50:02;5.50;;;4.95;;
13847;SDS011;6994;49.752;6.094;2023-04-19T09:52:31;6.15;;;5.50;;
13847;SDS011;6994;49.752;6.094;2023-04-19T09:54:59;7.05;;;5.32;;
13847;SDS011;6994;49.752;6.094;2023-04-19T09:57:25;6.20;;;5.60;;
13847;SDS011;6994;49.752;6.094;2023-04-19T09:59:52;5.78;;;5.18;;
13847;SDS011;6994;49.752;6.094;2023-04-19T10:02:20;5.20;;;4.70;;
13847;SDS011;6994;49.752;6.094;2023-04-19T10:04:47;6.25;;;5.22;;
13847;SDS011;6994;49.752;6.094;2023-04-19T10:07:15;5.78;;;5.18;;
13847;SDS011;6994;49.752;6.094;2023-04-19T10:09:42;7.03;;;4.75;;
13847;SDS011;6994;49.752;6.094;2023-04-19T10:12:10;5.35;;;4.85;;
13847;SDS011;6994;49.752;6.094;2023-04-19T10:14:38;5.07;;;4.57;;
13847;SDS011;6994;49.752;6.094;2023-04-19T10:17:05;5.32;;;4.82;;
13847;SDS011;6994;49.752;6.094;2023-04-19T10:19:32;5.12;;;4.10;;
13847;SDS011;6994;49.752;6.094;2023-04-19T10:21:59;5.03;;;4.55;;
13847;SDS011;6994;49.752;6.094;2023-04-19T10:24:27;4.65;;;4.25;;
13847;SDS011;6994;49.752;6.094;2023-04-19T10:27:07;5.62;;;5.07;;
13847;SDS011;6994;49.752;6.094;2023-04-19T10:32:20;4.00;;;3.60;;
13847;SDS011;6994;49.752;6.094;2023-04-19T10:34:48;4.57;;;3.72;;
13847;SDS011;6994;49.752;6.094;2023-04-19T10:37:15;4.28;;;3.55;;
13847;SDS011;6994;49.752;6.094;2023-04-19T10:39:43;4.80;;;4.15;;
13847;SDS011;6994;49.752;6.094;2023-04-19T10:42:09;4.72;;;3.92;;
13847;SDS011;6994;49.752;6.094;2023-04-19T10:44:37;4.62;;;3.85;;
13847;SDS011;6994;49.752;6.094;2023-04-19T10:47:04;5.80;;;4.15;;
13847;SDS011;6994;49.752;6.094;2023-04-19T10:49:31;5.45;;;3.50;;
13847;SDS011;6994;49.752;6.094;2023-04-19T10:51:58;3.95;;;3.58;;
13847;SDS011;6994;49.752;6.094;2023-04-19T10:54:29;6.25;;;3.78;;
13847;SDS011;6994;49.752;6.094;2023-04-19T10:56:57;5.28;;;4.60;;
13847;SDS011;6994;49.752;6.094;2023-04-19T10:59:25;4.50;;;4.00;;
13847;SDS011;6994;49.752;6.094;2023-04-19T11:01:52;4.30;;;3.90;;
13847;SDS011;6994;49.752;6.094;2023-04-19T11:04:22;5.62;;;4.12;;
13847;SDS011;6994;49.752;6.094;2023-04-19T11:09:33;4.95;;;3.87;;
13847;SDS011;6994;49.752;6.094;2023-04-19T11:12:07;3.37;;;3.08;;
13847;SDS011;6994;49.752;6.094;2023-04-19T11:14:38;4.05;;;3.62;;
13847;SDS011;6994;49.752;6.094;2023-04-19T11:17:15;4.25;;;3.90;;
13847;SDS011;6994;49.752;6.094;2023-04-19T11:20:04;5.62;;;3.97;;
13847;SDS011;6994;49.752;6.094;2023-04-19T11:22:09;4.60;;;3.58;;
13847;SDS011;6994;49.752;6.094;2023-04-19T11:24:37;3.72;;;3.42;;
13847;SDS011;6994;49.752;6.094;2023-04-19T11:27:06;4.93;;;3.22;;
13847;SDS011;6994;49.752;6.094;2023-04-19T11:29:33;4.30;;;3.92;;
13847;SDS011;6994;49.752;6.094;2023-04-19T11:32:01;3.75;;;3.42;;
13847;SDS011;6994;49.752;6.094;2023-04-19T11:34:29;3.90;;;3.53;;
13847;SDS011;6994;49.752;6.094;2023-04-19T11:36:57;3.50;;;3.20;;
13847;SDS011;6994;49.752;6.094;2023-04-19T11:39:24;4.72;;;4.25;;
13847;SDS011;6994;49.752;6.094;2023-04-19T11:41:51;3.95;;;3.55;;
13847;SDS011;6994;49.752;6.094;2023-04-19T11:44:19;4.12;;;3.72;;
13847;SDS011;6994;49.752;6.094;2023-04-19T11:47:01;4.05;;;3.75;;
13847;SDS011;6994;49.752;6.094;2023-04-19T11:49:29;3.40;;;3.10;;
13847;SDS011;6994;49.752;6.094;2023-04-19T11:52:01;3.75;;;3.45;;
13847;SDS011;6994;49.752;6.094;2023-04-19T11:54:25;4.47;;;3.08;;
13847;SDS011;6994;49.752;6.094;2023-04-19T11:56:57;3.78;;;3.50;;
13847;SDS011;6994;49.752;6.094;2023-04-19T11:59:25;3.65;;;3.22;;
13847;SDS011;6994;49.752;6.094;2023-04-19T12:01:52;3.80;;;3.40;;
13847;SDS011;6994;49.752;6.094;2023-04-19T12:04:19;3.67;;;3.33;;
13847;SDS011;6994;49.752;6.094;2023-04-19T12:06:54;4.30;;;3.90;;
13847;SDS011;6994;49.752;6.094;2023-04-19T12:09:14;5.82;;;3.65;;
13847;SDS011;6994;49.752;6.094;2023-04-19T12:11:43;3.83;;;3.37;;
13847;SDS011;6994;49.752;6.094;2023-04-19T12:14:11;4.47;;;3.55;;
13847;SDS011;6994;49.752;6.094;2023-04-19T12:16:38;3.22;;;2.90;;
13847;SDS011;6994;49.752;6.094;2023-04-19T12:19:12;4.43;;;3.22;;
13847;SDS011;6994;49.752;6.094;2023-04-19T12:21:40;4.62;;;3.83;;
13847;SDS011;6994;49.752;6.094;2023-04-19T12:24:07;3.78;;;3.17;;
13847;SDS011;6994;49.752;6.094;2023-04-19T12:26:34;5.15;;;3.67;;
13847;SDS011;6994;49.752;6.094;2023-04-19T12:29:02;5.35;;;4.00;;
13847;SDS011;6994;49.752;6.094;2023-04-19T12:31:29;5.07;;;4.57;;
13847;SDS011;6994;49.752;6.094;2023-04-19T12:33:57;5.12;;;4.20;;
13847;SDS011;6994;49.752;6.094;2023-04-19T12:36:24;4.90;;;3.75;;
13847;SDS011;6994;49.752;6.094;2023-04-19T12:38:52;4.00;;;3.70;;
13847;SDS011;6994;49.752;6.094;2023-04-19T12:41:20;6.12;;;4.00;;
13847;SDS011;6994;49.752;6.094;2023-04-19T12:43:47;5.05;;;4.05;;
13847;SDS011;6994;49.752;6.094;2023-04-19T12:46:14;6.20;;;3.95;;
13847;SDS011;6994;49.752;6.094;2023-04-19T12:48:41;5.22;;;4.25;;
13847;SDS011;6994;49.752;6.094;2023-04-19T12:51:09;4.45;;;3.90;;
13847;SDS011;6994;49.752;6.094;2023-04-19T12:53:36;5.18;;;4.68;;
13847;SDS011;6994;49.752;6.094;2023-04-19T12:56:03;4.15;;;3.85;;
13847;SDS011;6994;49.752;6.094;2023-04-19T12:58:30;5.00;;;4.50;;
13847;SDS011;6994;49.752;6.094;2023-04-19T13:00:57;6.18;;;4.72;;
13847;SDS011;6994;49.752;6.094;2023-04-19T13:03:25;6.25;;;4.22;;
13847;SDS011;6994;49.752;6.094;2023-04-19T13:05:52;4.93;;;4.35;;
13847;SDS011;6994;49.752;6.094;2023-04-19T13:08:19;4.62;;;4.22;;
13847;SDS011;6994;49.752;6.094;2023-04-19T13:10:46;4.80;;;4.22;;
13847;SDS011;6994;49.752;6.094;2023-04-19T13:13:13;5.15;;;4.18;;
13847;SDS011;6994;49.752;6.094;2023-04-19T13:15:41;5.43;;;4.70;;
13847;SDS011;6994;49.752;6.094;2023-04-19T13:18:08;5.70;;;4.72;;
13847;SDS011;6994;49.752;6.094;2023-04-19T13:20:35;6.65;;;5.43;;
13847;SDS011;6994;49.752;6.094;2023-04-19T13:23:02;5.60;;;4.87;;
13847;SDS011;6994;49.752;6.094;2023-04-19T13:25:29;5.15;;;4.53;;
13847;SDS011;6994;49.752;6.094;2023-04-19T13:27:57;6.07;;;4.62;;
13847;SDS011;6994;49.752;6.094;2023-04-19T13:30:24;4.57;;;4.12;;
13847;SDS011;6994;49.752;6.094;2023-04-19T13:32:51;5.68;;;4.07;;
13847;SDS011;6994;49.752;6.094;2023-04-19T13:35:18;5.18;;;4.65;;
13847;SDS011;6994;49.752;6.094;2023-04-19T13:37:46;5.32;;;4.85;;
13847;SDS011;6994;49.752;6.094;2023-04-19T13:40:13;5.32;;;4.82;;
13847;SDS011;6994;49.752;6.094;2023-04-19T13:42:41;4.60;;;4.18;;
13847;SDS011;6994;49.752;6.094;2023-04-19T13:45:08;5.55;;;4.78;;
13847;SDS011;6994;49.752;6.094;2023-04-19T13:47:35;7.12;;;4.55;;
13847;SDS011;6994;49.752;6.094;2023-04-19T13:50:02;5.72;;;5.12;;
13847;SDS011;6994;49.752;6.094;2023-04-19T13:52:29;6.45;;;4.50;;
13847;SDS011;6994;49.752;6.094;2023-04-19T13:54:57;8.77;;;4.65;;
13847;SDS011;6994;49.752;6.094;2023-04-19T13:57:24;5.18;;;4.53;;
13847;SDS011;6994;49.752;6.094;2023-04-19T13:59:51;4.80;;;4.30;;
13847;SDS011;6994;49.752;6.094;2023-04-19T14:02:19;5.20;;;3.20;;
13847;SDS011;6994;49.752;6.094;2023-04-19T14:04:47;5.18;;;4.07;;
13847;SDS011;6994;49.752;6.094;2023-04-19T14:07:15;4.75;;;3.83;;
13847;SDS011;6994;49.752;6.094;2023-04-19T14:09:42;4.85;;;4.45;;
13847;SDS011;6994;49.752;6.094;2023-04-19T14:12:09;4.32;;;3.83;;
13847;SDS011;6994;49.752;6.094;2023-04-19T14:14:37;4.43;;;4.03;;
13847;SDS011;6994;49.752;6.094;2023-04-19T14:17:04;4.47;;;4.07;;
13847;SDS011;6994;49.752;6.094;2023-04-19T14:19:31;3.47;;;3.17;;
13847;SDS011;6994;49.752;6.094;2023-04-19T14:21:58;4.50;;;3.78;;
13847;SDS011;6994;49.752;6.094;2023-04-19T14:24:25;6.28;;;3.78;;
13847;SDS011;6994;49.752;6.094;2023-04-19T14:26:53;4.15;;;3.78;;
13847;SDS011;6994;49.752;6.094;2023-04-19T14:29:20;4.28;;;3.87;;
13847;SDS011;6994;49.752;6.094;2023-04-19T14:31:47;3.87;;;3.58;;
13847;SDS011;6994;49.752;6.094;2023-04-19T14:34:14;5.65;;;3.45;;
13847;SDS011;6994;49.752;6.094;2023-04-19T14:36:42;4.32;;;3.37;;
13847;SDS011;6994;49.752;6.094;2023-04-19T14:39:09;4.60;;;3.42;;
13847;SDS011;6994;49.752;6.094;2023-04-19T14:41:37;4.82;;;3.92;;
13847;SDS011;6994;49.752;6.094;2023-04-19T14:44:04;4.20;;;3.80;;
13847;SDS011;6994;49.752;6.094;2023-04-19T14:46:31;6.40;;;3.70;;
13847;SDS011;6994;49.752;6.094;2023-04-19T14:48:58;4.03;;;3.60;;
13847;SDS011;6994;49.752;6.094;2023-04-19T14:51:25;4.43;;;3.60;;
13847;SDS011;6994;49.752;6.094;2023-04-19T14:53:53;3.97;;;3.35;;
13847;SDS011;6994;49.752;6.094;2023-04-19T14:56:21;5.03;;;4.00;;
13847;SDS011;6994;49.752;6.094;2023-04-19T14:58:48;3.67;;;3.37;;
13847;SDS011;6994;49.752;6.094;2023-04-19T15:01:15;3.85;;;3.45;;
13847;SDS011;6994;49.752;6.094;2023-04-19T15:03:42;3.65;;;3.35;;
13847;SDS011;6994;49.752;6.094;2023-04-19T15:06:09;4.22;;;3.87;;
13847;SDS011;6994;49.752;6.094;2023-04-19T15:08:37;4.80;;;4.30;;